ADDS TAF Board (Experimental) INFO Settings
IDs: Format: Expanded Condensed

KEWR - Newark Intl, NJ, US

Issued at 0231 UTC 30 Jun 2015
Updated at: 0516 UTC 30 Jun 2015
Time0451Z 30/06Z 30/07Z 30/08Z 30/09Z 30/10Z 30/11Z 30/12Z 30/13Z 30/14Z 30/15Z 30/16Z 30/17Z 30/18Z
Type OBS PRVL PRVL PRVL PRVL PRVL PRVL PRVL PRVL PRVL PRVL PRVL PRVL PRVL
VIS 10 >6 >6 >6 >6 >6 >6 >6 >6 >6 >6 >6 >6 >6
CIG -- -- -- -- -- -- -- -- -- -- -- -- 120 120
Cover FEW SCT SCT SCT SCT SCT SCT SCT SCT SCT SCT SCT BKN BKN
FltCat VFR VFR VFR VFR VFR VFR VFR VFR VFR VFR VFR VFR VFR VFR
WX -- -- -- -- -- -- -- -- -- -- -- -- -- --
WDir 220 200 200 200 200 200 200 200 200 180 180 180 170 170
WSpd 4 6 6 6 6 6 6 6 6 9 9 9 12 12
WGst -- -- -- -- -- -- -- -- -- -- -- -- 18 18
R04/22
XWnd 1 -1 -1 -1 -1 -1 -1 -1 -1 -4 -4 -4 -7 -7
XGst -- -- -- -- -- -- -- -- -- -- -- -- -11 -11
HWnd -4 -6 -6 -6 -6 -6 -6 -6 -6 -8 -8 -8 -10 -10
HGst -- -- -- -- -- -- -- -- -- -- -- -- -15 -15
R11/29
XWnd -3 -6 -6 -6 -6 -6 -6 -6 -6 -9 -9 -9 -12 -12
XGst -- -- -- -- -- -- -- -- -- -- -- -- -17 -17
HWnd -2 -2 -2 -2 -2 -2 -2 -2 -2 1 1 1 3 3
HGst -- -- -- -- -- -- -- -- -- -- -- -- 5 5

NOTE: TEMPO conditions in [brackets]. Keep in mind TEMPO conditions might be better (lower impact) than prevailing conditions.

Raw TAF
KEWR 300231Z 3003/0106 20006KT P6SM FEW050 SCT250
  FM301400 18009KT P6SM FEW050 SCT150
  FM301700 17012G18KT P6SM SCT050 BKN120
  FM010100 17008KT 6SM -SHRA BR BKN050 BKN100


Raw METAR
KEWR 300451Z 22004KT 10SM FEW250 20/15 A2995 RMK AO2 SLP140 T02000150 402610167
KEWR 300351Z 20008KT 10SM FEW250 22/15 A2995 RMK AO2 SLP140 T02170150
KEWR 300251Z 19006KT 10SM CLR 22/15 A2994 RMK AO2 SLP140 T02170150 51013

METAR Board
Radar Display
Forecast Discussion

TAF Board Legend

Potential Impact
Threat None Slight Moderate High
Visibility (sm) ≥5.1 5.1>X≥3 3>X≥1 <1
Ceiling (100 ft) ≥30.1 30.1>X≥10 10>X≥5 <5
Wind Speed (kt) <10 10≤X<20 20≤X<30 ≥30
Wind Gust (kt) <15 15≤X<25 25≤X<35 ≥35
Weather No Wx Reported VCTS,-TS,-FZRA,SN TS,FZRA +TS,+FZRA,+SN